Time;durP1;ratioP1;P1;durP2;ratioP2;P2;SDS_P1;SDS_P2;PMS_P1;PMS_P2;Temp;Humidity;BMP_temperature;BMP_pressure;BME280_temperature;BME280_humidity;BME280_pressure;Samples;Min_cycle;Max_cycle;Signal;HPM_P1;HPM_P2
2023/05/02 00:00:28;;;;;;;29.58;20.08;;;10.40;99.90;;;;;;5038369;28;20029;-65
2023/05/02 00:02:54;;;;;;;29.40;20.60;;;10.40;99.90;;;;;;5033734;28;20051;-66
2023/05/02 00:05:19;;;;;;;22.65;17.88;;;10.40;99.90;;;;;;5036115;28;20022;-66
2023/05/02 00:07:45;;;;;;;27.08;19.55;;;10.30;99.90;;;;;;5039768;28;20142;-66
2023/05/02 00:10:11;;;;;;;28.45;19.70;;;10.40;99.90;;;;;;5045084;28;20106;-66
2023/05/02 00:12:37;;;;;;;27.25;20.27;;;10.40;99.90;;;;;;5037692;28;20599;-67
2023/05/02 00:15:04;;;;;;;31.58;22.23;;;10.50;99.90;;;;;;5040570;28;20017;-66
2023/05/02 00:17:30;;;;;;;25.45;20.45;;;10.40;99.90;;;;;;5040273;28;20328;-66
2023/05/02 00:19:56;;;;;;;29.15;20.95;;;10.40;99.90;;;;;;5037468;28;20021;-66
2023/05/02 00:22:21;;;;;;;32.60;22.75;;;10.40;99.90;;;;;;5034358;28;21150;-66
2023/05/02 00:24:47;;;;;;;26.77;20.33;;;10.50;99.90;;;;;;5040238;28;20025;-66
2023/05/02 00:27:13;;;;;;;30.40;22.77;;;10.50;99.90;;;;;;5035444;28;20017;-67
2023/05/02 00:29:39;;;;;;;31.80;23.02;;;10.50;99.90;;;;;;5041882;28;20029;-65
2023/05/02 00:32:05;;;;;;;31.15;21.55;;;10.50;99.90;;;;;;5037808;28;20044;-66
2023/05/02 00:34:31;;;;;;;34.22;24.23;;;10.50;99.90;;;;;;5032385;28;20022;-66
2023/05/02 00:36:57;;;;;;;33.17;22.65;;;10.50;99.90;;;;;;5033797;28;20083;-66
2023/05/02 00:39:23;;;;;;;28.25;22.40;;;10.40;99.90;;;;;;5040196;28;20433;-66
2023/05/02 00:41:49;;;;;;;34.13;23.08;;;10.40;99.90;;;;;;5040975;28;20048;-66
2023/05/02 00:44:15;;;;;;;30.98;22.95;;;10.40;99.90;;;;;;5036208;28;20072;-63
2023/05/02 00:46:40;;;;;;;28.92;21.48;;;10.50;99.90;;;;;;5039923;28;20028;-64
2023/05/02 00:49:06;;;;;;;33.25;23.15;;;10.50;99.90;;;;;;5033488;28;20080;-64
2023/05/02 00:51:35;;;;;;;34.28;22.75;;;10.50;99.90;;;;;;5042137;28;20029;-67
2023/05/02 00:54:00;;;;;;;29.55;21.98;;;10.50;99.90;;;;;;5039770;28;20475;-66
2023/05/02 00:56:26;;;;;;;31.00;20.92;;;10.50;99.90;;;;;;5063795;22;20029;-55
2023/05/02 00:58:56;;;;;;;27.25;19.42;;;10.40;99.90;;;;;;5041407;28;20497;-50
2023/05/02 01:01:49;;;;;;;27.63;18.67;;;10.40;99.90;;;;;;5045086;28;20041;-53
2023/05/02 01:04:35;;;;;;;26.85;17.10;;;10.40;99.90;;;;;;5056575;28;20474;-50
2023/05/02 01:07:00;;;;;;;26.15;17.70;;;10.40;99.90;;;;;;5045913;28;20021;-54
2023/05/02 01:09:52;;;;;;;25.52;17.10;;;10.40;99.90;;;;;;5048531;28;20475;-52
2023/05/02 01:12:31;;;;;;;21.52;14.63;;;10.40;99.90;;;;;;5046515;28;20021;-50
2023/05/02 01:15:01;;;;;;;25.15;15.82;;;10.40;99.90;;;;;;5044845;28;20021;-50
2023/05/02 01:17:31;;;;;;;26.48;15.35;;;10.40;99.90;;;;;;5044361;28;20107;-51
2023/05/02 01:20:04;;;;;;;27.73;15.88;;;10.30;99.90;;;;;;5047706;28;20040;-49
2023/05/02 01:22:32;;;;;;;24.50;16.35;;;10.30;99.90;;;;;;5043130;28;20032;-51
2023/05/02 01:25:06;;;;;;;28.20;16.48;;;10.30;99.90;;;;;;5047383;28;20025;-53
2023/05/02 01:27:41;;;;;;;29.30;17.42;;;10.20;99.90;;;;;;5046025;28;20415;-51
2023/05/02 01:30:09;;;;;;;24.70;15.73;;;10.20;99.90;;;;;;5045956;28;20044;-50
2023/05/02 01:32:37;;;;;;;26.77;16.88;;;10.20;99.90;;;;;;5046140;28;20070;-53
2023/05/02 01:35:04;;;;;;;27.10;17.08;;;10.30;99.90;;;;;;5046196;28;20502;-51
2023/05/02 01:37:30;;;;;;;28.25;16.15;;;10.30;99.90;;;;;;5045337;28;20021;-54
2023/05/02 01:39:57;;;;;;;26.55;16.92;;;10.20;99.90;;;;;;5048362;28;20104;-52
2023/05/02 01:42:26;;;;;;;28.25;18.02;;;10.30;99.90;;;;;;5048355;28;20495;-50
2023/05/02 01:44:54;;;;;;;25.23;16.33;;;10.20;99.90;;;;;;5048330;28;20049;-52
2023/05/02 01:47:21;;;;;;;25.88;15.25;;;10.20;99.90;;;;;;5048042;28;20017;-49
2023/05/02 01:49:47;;;;;;;24.05;14.70;;;10.20;99.90;;;;;;5048068;28;20514;-50
2023/05/02 01:52:14;;;;;;;18.92;13.57;;;10.10;99.90;;;;;;5047839;28;20025;-52
2023/05/02 01:54:41;;;;;;;17.30;12.02;;;10.10;99.90;;;;;;5048273;28;20060;-53
2023/05/02 01:57:09;;;;;;;17.48;11.43;;;10.10;99.90;;;;;;5047703;28;20119;-53
2023/05/02 01:59:39;;;;;;;14.27;9.60;;;10.10;99.90;;;;;;5046679;28;20031;-51
2023/05/02 02:02:07;;;;;;;10.77;7.97;;;10.10;99.90;;;;;;5042805;28;20068;-49
2023/05/02 02:04:35;;;;;;;14.32;8.15;;;10.10;99.90;;;;;;5045915;28;20463;-52
2023/05/02 02:07:05;;;;;;;10.60;7.07;;;10.10;99.90;;;;;;5045479;28;20045;-50
2023/05/02 02:09:31;;;;;;;6.40;5.75;;;10.20;99.90;;;;;;5047966;28;20036;-50
2023/05/02 02:12:14;;;;;;;8.05;5.75;;;10.10;99.90;;;;;;5042271;28;20035;-51
2023/05/02 02:14:45;;;;;;;8.10;5.88;;;10.10;99.90;;;;;;5039901;28;20154;-49
2023/05/02 02:17:45;;;;;;;8.38;6.45;;;10.10;99.90;;;;;;5046293;28;20025;-50
2023/05/02 02:20:13;;;;;;;9.13;6.40;;;10.10;99.90;;;;;;5045116;28;20037;-50
2023/05/02 02:22:41;;;;;;;9.88;7.15;;;10.10;99.90;;;;;;5044414;28;20104;-51
2023/05/02 02:25:10;;;;;;;4.38;3.42;;;10.10;99.90;;;;;;5047155;28;20025;-47
2023/05/02 02:27:36;;;;;;;5.60;4.00;;;9.80;99.90;;;;;;5042381;28;20052;-52
2023/05/02 02:30:03;;;;;;;7.68;4.07;;;9.70;99.90;;;;;;5045468;28;20096;-51
2023/05/02 02:32:28;;;;;;;3.20;2.90;;;9.60;99.90;;;;;;5046982;28;20028;-50
2023/05/02 02:34:54;;;;;;;4.43;3.20;;;9.50;99.90;;;;;;5045037;28;20445;-51
2023/05/02 02:37:29;;;;;;;5.88;3.05;;;9.30;99.90;;;;;;5046919;28;20021;-49
2023/05/02 02:40:14;;;;;;;5.75;2.80;;;9.20;99.90;;;;;;5045471;28;20028;-48
2023/05/02 02:42:44;;;;;;;9.10;3.80;;;9.20;99.90;;;;;;5041828;28;20029;-54
2023/05/02 02:45:41;;;;;;;6.63;3.05;;;9.10;99.90;;;;;;5049920;28;20037;-49
2023/05/02 02:48:26;;;;;;;6.25;4.03;;;9.00;99.90;;;;;;5044821;28;20095;-52
2023/05/02 02:51:06;;;;;;;9.77;3.72;;;9.00;99.90;;;;;;5048850;28;20079;-51
2023/05/02 02:53:50;;;;;;;16.92;4.53;;;8.90;99.90;;;;;;5046835;28;20025;-51
2023/05/02 02:56:25;;;;;;;20.20;4.90;;;8.80;99.90;;;;;;5047606;28;20091;-49
2023/05/02 02:59:13;;;;;;;15.30;5.00;;;8.70;99.90;;;;;;5050683;28;20108;-50
2023/05/02 03:01:42;;;;;;;14.95;4.00;;;8.50;99.90;;;;;;5049055;28;20449;-52
2023/05/02 03:04:11;;;;;;;21.02;6.28;;;8.30;99.90;;;;;;5047621;28;20025;-49
2023/05/02 03:06:36;;;;;;;17.23;4.78;;;8.20;99.90;;;;;;5045233;28;20601;-48
2023/05/02 03:09:05;;;;;;;11.82;4.05;;;8.00;99.90;;;;;;5049568;28;20111;-50
2023/05/02 03:11:31;;;;;;;9.80;3.97;;;7.80;99.90;;;;;;5049197;28;20032;-48
2023/05/02 03:13:56;;;;;;;19.98;3.90;;;7.70;99.90;;;;;;5049247;28;20036;-50
2023/05/02 03:16:33;;;;;;;17.75;4.32;;;7.70;99.90;;;;;;5049350;28;20482;-51
2023/05/02 03:18:58;;;;;;;15.15;4.80;;;7.50;99.90;;;;;;5044165;28;20644;-48
2023/05/02 03:21:24;;;;;;;9.45;4.22;;;7.40;99.90;;;;;;5047974;28;20057;-47
2023/05/02 03:23:50;;;;;;;14.95;4.55;;;7.30;99.90;;;;;;5049122;28;20036;-48
2023/05/02 03:26:16;;;;;;;15.00;4.63;;;7.30;99.90;;;;;;5048341;28;20164;-48
2023/05/02 03:28:45;;;;;;;9.05;3.75;;;7.30;99.90;;;;;;5047521;28;20655;-51
2023/05/02 03:31:11;;;;;;;12.82;3.92;;;7.20;99.90;;;;;;5048576;28;20127;-48
2023/05/02 03:33:36;;;;;;;16.00;4.78;;;7.20;99.90;;;;;;5050365;28;20432;-51
2023/05/02 03:36:03;;;;;;;11.80;4.63;;;7.10;99.90;;;;;;5048860;28;20091;-53
2023/05/02 03:38:29;;;;;;;14.32;4.38;;;7.20;99.90;;;;;;5050031;28;20044;-50
2023/05/02 03:40:57;;;;;;;8.70;3.45;;;7.10;99.90;;;;;;5047824;28;20483;-51
2023/05/02 03:43:23;;;;;;;11.55;4.20;;;7.10;99.90;;;;;;5050283;28;20493;-51
2023/05/02 03:45:49;;;;;;;15.98;4.65;;;7.20;99.90;;;;;;5050222;28;20025;-51
2023/05/02 03:48:14;;;;;;;16.55;4.45;;;7.10;99.90;;;;;;5050269;28;20400;-50
2023/05/02 03:50:40;;;;;;;10.98;3.85;;;7.10;99.90;;;;;;5050147;28;20593;-49
2023/05/02 03:53:07;;;;;;;18.48;3.67;;;7.10;99.90;;;;;;5050264;28;20029;-49
2023/05/02 03:55:32;;;;;;;11.55;4.35;;;7.10;99.90;;;;;;5049339;28;20104;-51
2023/05/02 03:57:58;;;;;;;13.15;3.78;;;7.10;99.90;;;;;;5048551;28;20053;-49
2023/05/02 04:00:23;;;;;;;10.93;3.97;;;7.10;99.90;;;;;;5049168;28;20033;-48
2023/05/02 04:02:49;;;;;;;7.05;3.45;;;7.10;99.90;;;;;;5048301;28;20051;-52
2023/05/02 04:05:15;;;;;;;13.30;4.53;;;7.10;99.90;;;;;;5046371;28;20037;-49
2023/05/02 04:07:43;;;;;;;16.20;5.00;;;7.10;99.90;;;;;;5049114;28;20061;-50
2023/05/02 04:10:15;;;;;;;12.80;4.55;;;7.10;99.90;;;;;;5048799;28;20029;-48
2023/05/02 04:12:41;;;;;;;14.05;3.38;;;7.10;99.90;;;;;;5048091;28;20450;-52
2023/05/02 04:15:07;;;;;;;12.52;3.72;;;7.00;99.90;;;;;;5045763;28;20057;-51
2023/05/02 04:17:32;;;;;;;8.65;3.78;;;7.00;99.90;;;;;;5048823;28;20029;-49
2023/05/02 04:19:58;;;;;;;13.43;3.63;;;7.00;99.90;;;;;;5047047;28;20109;-51
2023/05/02 04:22:23;;;;;;;12.18;3.42;;;7.10;99.90;;;;;;5048514;28;20033;-51
2023/05/02 04:24:49;;;;;;;16.52;5.07;;;7.10;99.90;;;;;;5045149;28;20032;-49
2023/05/02 04:27:14;;;;;;;13.43;4.13;;;7.00;99.90;;;;;;5045780;28;20025;-49
2023/05/02 04:29:40;;;;;;;15.40;4.00;;;7.10;99.90;;;;;;5046556;28;20030;-49
2023/05/02 04:32:06;;;;;;;18.25;4.32;;;7.10;99.90;;;;;;5048003;28;20746;-52
2023/05/02 04:34:31;;;;;;;13.32;3.42;;;7.00;99.90;;;;;;5048313;28;20356;-50
2023/05/02 04:36:57;;;;;;;11.75;3.97;;;7.00;99.90;;;;;;5045429;28;20029;-49
2023/05/02 04:39:22;;;;;;;10.70;3.42;;;7.10;99.90;;;;;;5044155;28;20199;-49
2023/05/02 04:41:48;;;;;;;17.83;4.63;;;7.00;99.90;;;;;;5048292;28;20029;-51
2023/05/02 04:44:14;;;;;;;14.43;3.88;;;7.10;99.90;;;;;;5040924;28;20384;-50
2023/05/02 04:46:39;;;;;;;11.05;3.65;;;6.90;99.90;;;;;;5048103;28;20024;-49
2023/05/02 04:49:05;;;;;;;17.38;4.18;;;6.90;99.90;;;;;;5046890;28;20041;-49
2023/05/02 04:51:30;;;;;;;7.65;3.25;;;6.90;99.90;;;;;;5042069;28;20098;-52
2023/05/02 04:53:56;;;;;;;11.05;3.22;;;6.90;99.90;;;;;;5048060;28;20542;-51
2023/05/02 04:56:21;;;;;;;11.68;3.97;;;6.80;99.90;;;;;;5046118;28;20029;-50
2023/05/02 04:58:47;;;;;;;8.88;4.05;;;6.80;99.90;;;;;;5043512;28;20056;-50
2023/05/02 05:01:13;;;;;;;7.07;2.30;;;6.80;99.90;;;;;;5045759;28;20076;-51
2023/05/02 05:03:38;;;;;;;12.80;3.05;;;6.80;99.90;;;;;;5048297;28;20093;-48
2023/05/02 05:06:04;;;;;;;10.07;3.25;;;6.80;99.90;;;;;;5047878;28;20445;-49
2023/05/02 05:08:29;;;;;;;15.68;4.03;;;6.80;99.90;;;;;;5043845;28;20029;-49
2023/05/02 05:10:55;;;;;;;12.05;3.97;;;6.70;99.90;;;;;;5044317;28;20083;-50
2023/05/02 05:13:21;;;;;;;9.40;3.35;;;6.70;99.90;;;;;;5047339;28;20021;-53
2023/05/02 05:15:46;;;;;;;8.15;3.28;;;6.70;99.90;;;;;;5043890;28;20066;-48
2023/05/02 05:18:12;;;;;;;9.90;2.75;;;6.80;99.90;;;;;;5047436;28;20124;-48
2023/05/02 05:20:38;;;;;;;6.65;3.13;;;6.80;99.90;;;;;;5047626;28;20031;-51
2023/05/02 05:23:03;;;;;;;9.85;3.38;;;6.80;99.90;;;;;;5047798;28;20020;-51
2023/05/02 05:25:29;;;;;;;8.95;2.70;;;6.80;99.90;;;;;;5047901;28;20061;-51
2023/05/02 05:27:56;;;;;;;11.80;3.72;;;6.70;99.90;;;;;;5047643;28;20025;-50
2023/05/02 05:30:21;;;;;;;6.28;3.03;;;6.80;99.90;;;;;;5046841;28;20085;-50
2023/05/02 05:32:47;;;;;;;12.85;3.42;;;6.80;99.90;;;;;;5047794;28;20518;-50
2023/05/02 05:35:12;;;;;;;13.18;3.25;;;6.80;99.90;;;;;;5044230;28;20025;-49
2023/05/02 05:37:38;;;;;;;10.70;3.05;;;6.80;99.90;;;;;;5047265;28;20053;-49
2023/05/02 05:40:08;;;;;;;6.65;2.65;;;6.80;99.90;;;;;;5047337;28;20071;-50
2023/05/02 05:42:33;;;;;;;6.05;2.83;;;6.80;99.90;;;;;;5037085;28;20126;-52
2023/05/02 05:44:59;;;;;;;7.55;3.78;;;6.80;99.90;;;;;;5045641;28;20061;-50
2023/05/02 05:47:25;;;;;;;11.60;3.30;;;6.90;99.90;;;;;;5047403;28;20028;-49
2023/05/02 05:49:54;;;;;;;11.82;3.33;;;6.90;99.90;;;;;;5047718;28;20032;-49
2023/05/02 05:52:20;;;;;;;8.20;2.65;;;6.90;99.90;;;;;;5044682;28;20041;-51
2023/05/02 05:54:46;;;;;;;13.68;3.60;;;7.00;99.90;;;;;;5046141;28;20059;-50
2023/05/02 05:57:11;;;;;;;7.38;2.97;;;7.00;99.90;;;;;;5046848;28;20051;-50
2023/05/02 05:59:37;;;;;;;9.35;3.10;;;7.00;99.90;;;;;;5047437;28;20484;-49
2023/05/02 06:02:03;;;;;;;5.97;2.80;;;7.00;99.90;;;;;;5045434;28;20029;-50
2023/05/02 06:04:28;;;;;;;6.72;2.20;;;7.10;99.90;;;;;;5047322;28;20063;-50
2023/05/02 06:06:54;;;;;;;11.45;3.10;;;7.10;99.90;;;;;;5046722;28;20037;-49
2023/05/02 06:09:20;;;;;;;12.27;3.28;;;7.10;99.90;;;;;;5046262;28;20150;-50
2023/05/02 06:11:45;;;;;;;5.20;2.65;;;7.20;99.90;;;;;;5047224;28;20037;-51
2023/05/02 06:14:11;;;;;;;11.27;3.17;;;7.20;99.90;;;;;;5047667;28;20021;-49
2023/05/02 06:16:36;;;;;;;5.22;2.15;;;7.20;99.90;;;;;;5047316;28;20021;-50
2023/05/02 06:19:02;;;;;;;8.02;3.20;;;7.20;99.90;;;;;;5047402;28;20056;-49
2023/05/02 06:21:28;;;;;;;7.03;2.75;;;7.20;99.90;;;;;;5051055;28;20635;-50
2023/05/02 06:23:53;;;;;;;6.20;2.38;;;7.20;99.90;;;;;;5046772;28;20029;-51
2023/05/02 06:26:20;;;;;;;4.82;2.53;;;7.20;99.90;;;;;;5051151;28;20025;-50
2023/05/02 06:28:45;;;;;;;4.55;2.00;;;7.10;99.90;;;;;;5050135;28;20051;-51
2023/05/02 06:31:11;;;;;;;11.75;2.28;;;7.10;99.90;;;;;;5051014;28;20495;-51
2023/05/02 06:33:37;;;;;;;4.80;1.85;;;7.00;99.90;;;;;;5050521;28;20021;-49
2023/05/02 06:36:03;;;;;;;8.43;2.33;;;7.00;99.90;;;;;;5051299;28;20021;-50
2023/05/02 06:38:28;;;;;;;4.10;2.28;;;7.00;99.90;;;;;;5048868;28;20028;-50
2023/05/02 06:40:54;;;;;;;5.80;2.20;;;7.00;99.90;;;;;;5049820;28;20029;-49
2023/05/02 06:43:20;;;;;;;6.18;1.83;;;7.00;99.90;;;;;;5049601;28;20025;-50
2023/05/02 06:45:45;;;;;;;8.35;2.95;;;7.10;99.90;;;;;;5051101;28;20028;-49
2023/05/02 06:48:11;;;;;;;8.57;2.35;;;7.10;99.90;;;;;;5049000;28;20033;-49
2023/05/02 06:50:37;;;;;;;3.58;1.63;;;7.20;99.90;;;;;;5051052;28;20028;-49
2023/05/02 06:53:06;;;;;;;5.70;2.83;;;7.30;99.90;;;;;;5047982;28;20025;-49
2023/05/02 06:55:31;;;;;;;6.70;2.00;;;7.30;99.90;;;;;;5050961;28;20048;-49
2023/05/02 06:57:57;;;;;;;5.97;1.77;;;7.30;99.90;;;;;;5071714;23;20112;-65
2023/05/02 07:00:23;;;;;;;11.00;2.25;;;7.30;99.90;;;;;;5053558;28;20119;-65
2023/05/02 07:02:49;;;;;;;7.20;2.10;;;7.30;99.90;;;;;;5064088;28;20109;-65
2023/05/02 07:05:15;;;;;;;5.55;2.22;;;7.30;99.90;;;;;;5055013;28;20486;-66
2023/05/02 07:07:41;;;;;;;6.05;1.92;;;7.30;99.90;;;;;;5052074;28;20491;-64
2023/05/02 07:10:07;;;;;;;5.60;2.22;;;7.40;99.90;;;;;;5049008;28;20115;-65
2023/05/02 07:12:33;;;;;;;9.60;1.80;;;7.50;99.90;;;;;;5050268;28;20033;-65
2023/05/02 07:14:59;;;;;;;7.95;2.20;;;7.50;99.90;;;;;;5050620;28;20025;-65
2023/05/02 07:17:25;;;;;;;4.95;1.98;;;7.50;99.90;;;;;;5046958;28;20412;-65
2023/05/02 07:19:51;;;;;;;9.07;2.28;;;7.60;99.90;;;;;;5049691;28;20024;-62
2023/05/02 07:22:16;;;;;;;3.25;1.25;;;7.60;99.90;;;;;;5049892;28;20453;-63
2023/05/02 07:24:42;;;;;;;4.78;1.63;;;7.60;99.90;;;;;;5049956;28;20423;-64
2023/05/02 07:27:09;;;;;;;3.90;1.63;;;7.70;99.90;;;;;;5048045;28;20626;-63
2023/05/02 07:29:34;;;;;;;4.60;1.58;;;7.60;99.90;;;;;;5048415;28;20114;-65
2023/05/02 07:32:00;;;;;;;8.80;2.13;;;7.60;99.90;;;;;;5048571;28;20495;-64
2023/05/02 07:34:25;;;;;;;5.15;1.98;;;7.60;99.90;;;;;;5048373;28;20036;-61
2023/05/02 07:36:51;;;;;;;7.88;1.77;;;7.70;99.90;;;;;;5048810;28;20025;-61
2023/05/02 07:39:17;;;;;;;8.10;1.92;;;7.70;99.90;;;;;;5049375;28;20100;-63
2023/05/02 07:41:42;;;;;;;7.93;2.03;;;7.70;99.90;;;;;;5050172;28;20086;-64
2023/05/02 07:44:08;;;;;;;6.82;2.17;;;7.60;99.90;;;;;;5049538;28;20051;-63
2023/05/02 07:46:33;;;;;;;3.72;1.58;;;7.70;99.90;;;;;;5049658;28;20040;-63
2023/05/02 07:48:59;;;;;;;5.97;1.73;;;7.70;99.90;;;;;;5047080;28;20027;-64
2023/05/02 07:51:25;;;;;;;5.82;1.80;;;7.80;99.90;;;;;;5048033;28;20461;-65
2023/05/02 07:53:57;;;;;;;5.25;1.88;;;7.80;99.90;;;;;;5049969;28;20144;-65
2023/05/02 07:56:23;;;;;;;5.38;1.77;;;7.90;99.90;;;;;;5054732;28;20021;-65
2023/05/02 07:58:50;;;;;;;4.13;1.80;;;8.00;99.90;;;;;;5051049;28;20032;-65
2023/05/02 08:01:16;;;;;;;5.38;1.90;;;8.00;99.90;;;;;;5047020;28;20041;-64
2023/05/02 08:03:41;;;;;;;7.15;2.28;;;8.10;99.90;;;;;;5049815;28;20079;-65
2023/05/02 08:06:08;;;;;;;4.95;1.70;;;8.10;99.90;;;;;;5048020;28;20056;-66
2023/05/02 08:08:34;;;;;;;6.30;1.70;;;8.10;99.90;;;;;;5048164;28;20051;-64
2023/05/02 08:11:00;;;;;;;5.22;1.65;;;8.10;99.90;;;;;;5049452;28;20021;-65
2023/05/02 08:13:26;;;;;;;6.65;1.50;;;8.20;99.90;;;;;;5050396;28;20510;-64
2023/05/02 08:15:56;;;;;;;7.78;1.98;;;8.20;99.90;;;;;;5047672;28;20024;-67
2023/05/02 08:18:26;;;;;;;6.30;1.70;;;8.20;99.90;;;;;;5048898;28;20100;-65
2023/05/02 08:20:54;;;;;;;4.80;1.50;;;8.30;99.90;;;;;;5049273;28;20445;-65
2023/05/02 08:23:20;;;;;;;3.05;1.50;;;8.30;99.90;;;;;;5049056;28;20407;-66
2023/05/02 08:25:45;;;;;;;5.22;2.05;;;8.40;99.90;;;;;;5048700;28;20021;-66
2023/05/02 08:28:11;;;;;;;4.55;1.00;;;8.40;99.90;;;;;;5048903;28;20037;-66
2023/05/02 08:30:37;;;;;;;8.15;2.30;;;8.50;99.90;;;;;;5046558;28;20033;-66
2023/05/02 08:33:02;;;;;;;3.40;1.60;;;8.50;99.90;;;;;;5054677;28;20545;-65
2023/05/02 08:35:29;;;;;;;5.88;1.58;;;8.60;99.90;;;;;;5048306;28;20021;-66
2023/05/02 08:37:55;;;;;;;4.38;1.45;;;8.60;99.90;;;;;;5047665;28;20102;-65
2023/05/02 08:40:21;;;;;;;3.80;2.25;;;8.60;99.90;;;;;;5049138;28;20025;-66
2023/05/02 08:42:47;;;;;;;4.82;1.73;;;8.60;99.90;;;;;;5046588;28;20028;-65
2023/05/02 08:45:14;;;;;;;7.28;1.98;;;8.70;99.90;;;;;;5049178;28;20166;-66
2023/05/02 08:47:40;;;;;;;4.68;1.70;;;8.80;99.90;;;;;;5047186;28;20033;-66
2023/05/02 08:50:08;;;;;;;7.07;1.77;;;8.90;99.90;;;;;;5048408;28;20086;-63
2023/05/02 08:52:35;;;;;;;4.55;1.38;;;9.00;99.90;;;;;;5042782;28;20029;-66
2023/05/02 08:55:02;;;;;;;7.20;1.77;;;9.00;99.90;;;;;;5048858;28;20475;-66
2023/05/02 08:57:29;;;;;;;9.13;1.90;;;8.90;99.90;;;;;;5047696;28;20565;-65
2023/05/02 08:59:55;;;;;;;3.78;1.35;;;9.00;99.90;;;;;;5046290;28;20037;-64
2023/05/02 09:02:48;;;;;;;5.32;1.60;;;9.10;99.90;;;;;;5047514;28;20040;-65
2023/05/02 09:05:19;;;;;;;6.88;1.73;;;9.30;99.90;;;;;;5047825;28;20242;-65
2023/05/02 09:07:47;;;;;;;5.05;1.58;;;9.50;99.90;;;;;;5047585;28;20017;-64
2023/05/02 09:10:16;;;;;;;3.90;1.95;;;9.60;99.90;;;;;;5045557;28;20041;-65
2023/05/02 09:12:42;;;;;;;7.90;2.50;;;9.70;99.90;;;;;;5045451;28;20029;-64
2023/05/02 09:15:12;;;;;;;7.13;1.40;;;9.70;99.90;;;;;;5045332;28;20033;-64
2023/05/02 09:17:39;;;;;;;3.65;1.60;;;9.90;99.90;;;;;;5044807;28;20593;-65
2023/05/02 09:20:06;;;;;;;3.15;1.73;;;10.20;99.90;;;;;;5044512;28;20064;-66
2023/05/02 09:22:33;;;;;;;5.13;1.73;;;10.50;99.90;;;;;;5045112;28;20445;-65
2023/05/02 09:24:59;;;;;;;6.32;2.38;;;10.60;99.90;;;;;;5044557;28;20107;-64
2023/05/02 09:27:27;;;;;;;4.00;1.65;;;10.60;99.30;;;;;;5047047;28;20541;-63
2023/05/02 09:30:19;;;;;;;6.65;1.90;;;10.50;98.90;;;;;;5046176;28;20029;-66
2023/05/02 09:32:45;;;;;;;3.58;1.20;;;10.40;99.90;;;;;;5045704;28;20041;-66
2023/05/02 09:35:12;;;;;;;1.83;1.30;;;10.30;99.70;;;;;;5045015;28;20056;-65
2023/05/02 09:37:37;;;;;;;5.97;2.00;;;10.30;99.90;;;;;;5046929;28;20021;-65
2023/05/02 09:40:08;;;;;;;2.38;1.58;;;10.30;99.90;;;;;;5046665;28;20025;-66
2023/05/02 09:42:35;;;;;;;2.30;1.17;;;10.30;99.90;;;;;;5046127;28;20081;-66
2023/05/02 09:45:00;;;;;;;4.05;1.63;;;10.30;99.90;;;;;;5047412;28;20052;-65
2023/05/02 09:47:26;;;;;;;2.58;1.15;;;10.20;99.90;;;;;;5046775;28;20517;-64
2023/05/02 09:49:52;;;;;;;3.47;2.00;;;10.10;99.90;;;;;;5046078;28;20054;-65
2023/05/02 09:52:20;;;;;;;5.70;1.80;;;10.00;99.90;;;;;;5046784;28;20035;-66
2023/05/02 09:54:46;;;;;;;3.60;1.40;;;9.90;99.90;;;;;;5047242;28;20094;-65
2023/05/02 09:57:12;;;;;;;2.00;1.33;;;10.00;99.90;;;;;;5045272;28;20028;-65
2023/05/02 09:59:39;;;;;;;4.97;1.50;;;10.10;99.90;;;;;;5046889;28;20414;-64
2023/05/02 10:02:06;;;;;;;2.20;1.20;;;10.40;99.90;;;;;;5046337;28;20506;-66
2023/05/02 10:04:33;;;;;;;2.10;1.13;;;10.30;99.90;;;;;;5047045;28;20032;-65
2023/05/02 10:07:00;;;;;;;4.25;1.90;;;10.40;99.90;;;;;;5046359;28;20060;-66
2023/05/02 10:09:27;;;;;;;4.38;1.38;;;10.50;99.90;;;;;;5046931;28;20028;-65
2023/05/02 10:11:55;;;;;;;4.22;1.48;;;10.40;99.90;;;;;;5046924;28;20063;-65
2023/05/02 10:14:23;;;;;;;4.53;1.60;;;10.40;99.90;;;;;;5044520;28;20021;-65
2023/05/02 10:16:59;;;;;;;3.70;1.85;;;10.30;99.90;;;;;;5045609;28;20021;-64
2023/05/02 10:19:41;;;;;;;6.00;2.05;;;10.30;99.90;;;;;;5046810;28;20018;-63
2023/05/02 10:22:07;;;;;;;2.45;1.65;;;10.60;99.90;;;;;;5045280;28;20033;-64
2023/05/02 10:24:33;;;;;;;2.20;1.45;;;11.00;99.90;;;;;;5046811;28;20041;-64
2023/05/02 10:27:01;;;;;;;2.88;1.55;;;11.40;99.90;;;;;;5046351;28;20139;-64
2023/05/02 10:29:28;;;;;;;4.82;1.92;;;11.80;99.90;;;;;;5045556;28;20055;-63
2023/05/02 10:31:55;;;;;;;2.88;1.55;;;12.10;99.60;;;;;;5044810;28;20037;-64
2023/05/02 10:34:21;;;;;;;1.92;1.40;;;12.30;99.90;;;;;;5046011;28;20631;-64
2023/05/02 10:36:47;;;;;;;4.32;1.60;;;12.30;98.80;;;;;;5046453;28;20045;-65
2023/05/02 10:39:12;;;;;;;2.85;1.33;;;11.90;97.90;;;;;;5046399;28;21259;-64
2023/05/02 10:41:40;;;;;;;3.05;1.20;;;11.70;99.60;;;;;;5044927;28;20115;-63
2023/05/02 10:44:07;;;;;;;3.95;1.33;;;11.50;99.40;;;;;;5044342;28;20038;-63
2023/05/02 10:46:40;;;;;;;5.85;1.30;;;11.50;99.90;;;;;;5045454;28;20021;-65
2023/05/02 10:49:12;;;;;;;4.18;1.23;;;11.30;99.90;;;;;;5043512;28;20036;-65
2023/05/02 10:51:42;;;;;;;5.85;1.92;;;11.20;99.90;;;;;;5045028;28;20017;-66
2023/05/02 10:54:17;;;;;;;4.70;1.50;;;11.00;99.90;;;;;;5046470;28;20033;-64
2023/05/02 10:57:04;;;;;;;4.78;1.48;;;11.10;99.90;;;;;;5046600;28;20614;-65
2023/05/02 10:59:33;;;;;;;4.55;1.35;;;11.10;99.90;;;;;;5045985;28;20092;-65
2023/05/02 11:02:00;;;;;;;5.95;1.38;;;11.20;99.90;;;;;;5045603;28;20040;-64
2023/05/02 11:04:45;;;;;;;1.38;0.88;;;11.20;99.80;;;;;;5045796;28;20112;-66
2023/05/02 11:07:17;;;;;;;5.20;1.50;;;11.20;98.70;;;;;;5049397;28;20033;-63
2023/05/02 11:09:43;;;;;;;4.68;1.55;;;11.10;99.00;;;;;;5050065;28;20491;-66
2023/05/02 11:12:08;;;;;;;4.20;1.15;;;11.00;97.30;;;;;;5047902;28;20063;-65
2023/05/02 11:14:37;;;;;;;5.40;1.50;;;11.10;97.20;;;;;;5048361;28;20031;-65
2023/05/02 11:17:03;;;;;;;2.80;1.00;;;11.20;98.80;;;;;;5050379;28;20025;-65
2023/05/02 11:19:50;;;;;;;1.42;1.00;;;11.50;98.40;;;;;;5049796;28;20038;-65
2023/05/02 11:22:26;;;;;;;2.30;1.05;;;11.70;97.80;;;;;;5049713;28;20607;-64
2023/05/02 11:24:53;;;;;;;3.58;1.10;;;11.70;97.40;;;;;;5048348;28;20075;-62
2023/05/02 11:27:30;;;;;;;1.98;1.20;;;11.50;98.30;;;;;;5050569;28;20037;-64
2023/05/02 11:30:07;;;;;;;2.92;1.02;;;11.40;99.30;;;;;;5048386;28;20028;-65
2023/05/02 11:32:46;;;;;;;3.05;1.10;;;11.20;99.50;;;;;;5049467;28;20564;-64
2023/05/02 11:35:20;;;;;;;6.47;1.17;;;11.00;99.90;;;;;;5048785;28;20518;-65
2023/05/02 11:37:52;;;;;;;2.97;1.30;;;10.80;99.90;;;;;;5048517;28;20037;-66
2023/05/02 11:40:18;;;;;;;3.70;1.73;;;10.80;99.90;;;;;;5049672;28;20033;-67
2023/05/02 11:42:44;;;;;;;1.88;1.50;;;10.80;99.90;;;;;;5049821;28;20025;-66
2023/05/02 11:45:09;;;;;;;2.63;1.40;;;10.80;99.90;;;;;;5048922;28;20124;-64
2023/05/02 11:47:35;;;;;;;1.95;1.40;;;10.80;99.90;;;;;;5049234;28;20029;-64
2023/05/02 11:50:04;;;;;;;6.20;2.10;;;10.90;99.50;;;;;;5049397;28;20053;-65
2023/05/02 11:52:30;;;;;;;3.92;1.50;;;10.80;99.60;;;;;;5048958;28;20387;-66
2023/05/02 11:54:56;;;;;;;2.42;1.33;;;10.70;99.90;;;;;;5049144;28;20021;-65
2023/05/02 11:57:22;;;;;;;4.28;1.67;;;10.80;99.90;;;;;;5048610;28;20077;-64
2023/05/02 11:59:57;;;;;;;6.45;1.92;;;10.90;99.90;;;;;;5048791;28;20031;-64
2023/05/02 12:02:39;;;;;;;3.97;1.33;;;10.90;99.70;;;;;;5048375;28;20036;-65
2023/05/02 12:05:07;;;;;;;4.22;1.85;;;10.90;99.90;;;;;;5048283;28;20116;-64
2023/05/02 12:07:41;;;;;;;5.18;1.40;;;11.00;99.40;;;;;;5048828;28;20029;-65
2023/05/02 12:10:08;;;;;;;2.85;1.45;;;10.90;99.40;;;;;;5047372;28;20029;-66
2023/05/02 12:12:38;;;;;;;1.83;1.05;;;10.90;99.20;;;;;;5048603;28;20037;-66
2023/05/02 12:15:09;;;;;;;5.50;1.77;;;10.70;99.00;;;;;;5048565;28;20099;-64
2023/05/02 12:17:40;;;;;;;5.65;1.83;;;10.60;99.60;;;;;;5046260;28;20032;-64
2023/05/02 12:20:07;;;;;;;3.70;1.65;;;10.60;99.30;;;;;;5048416;28;20116;-63
2023/05/02 12:22:33;;;;;;;4.65;1.23;;;10.60;97.00;;;;;;5048773;28;20041;-65
2023/05/02 12:24:59;;;;;;;2.53;1.15;;;10.70;98.00;;;;;;5048527;28;20044;-66
2023/05/02 12:27:26;;;;;;;3.17;0.90;;;11.00;97.10;;;;;;5048193;28;20067;-65
2023/05/02 12:29:52;;;;;;;5.28;1.65;;;11.00;96.40;;;;;;5047684;28;20037;-65
2023/05/02 12:32:30;;;;;;;4.00;1.27;;;11.20;98.10;;;;;;5062716;28;20040;-65
2023/05/02 12:34:57;;;;;;;1.35;1.25;;;11.20;96.00;;;;;;5047790;28;20086;-60
2023/05/02 12:37:26;;;;;;;5.35;2.05;;;11.20;96.10;;;;;;5048281;28;20025;-66
2023/05/02 12:39:54;;;;;;;4.97;2.03;;;11.20;95.10;;;;;;5047877;28;20406;-64
2023/05/02 12:42:24;;;;;;;4.43;1.35;;;11.20;96.40;;;;;;5048258;28;20676;-65
2023/05/02 12:44:51;;;;;;;3.92;1.90;;;11.10;96.00;;;;;;5048081;28;20025;-68
2023/05/02 12:47:18;;;;;;;2.92;1.35;;;11.10;95.20;;;;;;5048399;28;20045;-64
2023/05/02 12:49:58;;;;;;;2.28;1.40;;;11.10;97.40;;;;;;5046472;28;20033;-65
2023/05/02 12:52:47;;;;;;;5.03;1.27;;;11.20;97.30;;;;;;5047778;28;20575;-64